createdAt,value
2022-08-19T00:01:59.296Z,0.95
2022-08-19T00:04:30.602Z,0.90
2022-08-19T00:06:58.699Z,0.95
2022-08-19T00:09:27.081Z,0.90
2022-08-19T00:11:56.686Z,1.05
2022-08-19T00:14:25.759Z,0.80
2022-08-19T00:16:55.602Z,0.90
2022-08-19T00:19:24.509Z,1.17
2022-08-19T00:21:52.451Z,0.93
2022-08-19T00:24:20.934Z,0.80
2022-08-19T00:26:48.484Z,1.10
2022-08-19T00:29:19.417Z,0.85
2022-08-19T00:34:15.900Z,1.00
2022-08-19T00:36:44.113Z,0.82
2022-08-19T00:39:12.982Z,1.00
2022-08-19T00:41:41.811Z,0.82
2022-08-19T00:44:28.548Z,0.98
2022-08-19T00:47:00.076Z,1.08
2022-08-19T00:49:34.277Z,1.00
2022-08-19T00:52:13.705Z,1.00
2022-08-19T00:54:42.723Z,0.90
2022-08-19T00:57:14.234Z,0.93
2022-08-19T00:59:56.278Z,0.90
2022-08-19T01:02:31.412Z,0.85
2022-08-19T01:04:59.148Z,0.80
2022-08-19T01:07:26.758Z,0.90
2022-08-19T01:09:54.786Z,1.00
2022-08-19T01:12:22.744Z,0.80
2022-08-19T01:14:51.319Z,1.00
2022-08-19T01:17:20.323Z,0.90
2022-08-19T01:19:48.909Z,0.88
2022-08-19T01:22:30.126Z,0.80
2022-08-19T01:24:59.476Z,0.90
2022-08-19T01:27:27.172Z,1.05
2022-08-19T01:29:58.270Z,1.10
2022-08-19T01:32:33.571Z,1.08
2022-08-19T01:35:03.097Z,1.00
2022-08-19T01:37:31.676Z,0.93
2022-08-19T01:39:59.365Z,1.00
2022-08-19T01:42:30.151Z,0.68
2022-08-19T01:44:58.455Z,0.88
2022-08-19T01:47:25.949Z,0.90
2022-08-19T01:49:53.436Z,0.88
2022-08-19T01:52:21.225Z,1.10
2022-08-19T01:54:48.670Z,1.25
2022-08-19T01:57:16.670Z,1.23
2022-08-19T01:59:45.537Z,1.00
2022-08-19T02:02:12.999Z,0.90
2022-08-19T02:04:40.523Z,0.90
2022-08-19T02:07:09.340Z,0.88
2022-08-19T02:09:37.070Z,0.85
2022-08-19T02:12:06.248Z,0.90
2022-08-19T02:14:36.553Z,0.90
2022-08-19T02:17:04.909Z,0.93
2022-08-19T02:19:33.785Z,1.00
2022-08-19T02:22:01.642Z,0.70
2022-08-19T02:24:29.340Z,0.93
2022-08-19T02:26:57.020Z,0.80
2022-08-19T02:29:24.647Z,0.90
2022-08-19T02:31:52.779Z,0.93
2022-08-19T02:34:20.256Z,1.00
2022-08-19T02:36:50.600Z,1.00
2022-08-19T02:39:19.749Z,0.82
2022-08-19T02:41:47.203Z,0.82
2022-08-19T02:44:30.589Z,0.80
2022-08-19T02:46:59.029Z,0.88
2022-08-19T02:49:26.609Z,1.00
2022-08-19T02:51:54.153Z,0.98
2022-08-19T02:54:21.640Z,1.00
2022-08-19T02:56:50.098Z,0.75
2022-08-19T02:59:17.677Z,0.70
2022-08-19T03:04:16.836Z,0.90
2022-08-19T03:06:46.274Z,0.82
2022-08-19T03:09:14.422Z,0.90
2022-08-19T03:11:42.349Z,1.00
2022-08-19T03:14:10.955Z,0.85
2022-08-19T03:16:49.088Z,0.80
2022-08-19T03:19:18.895Z,0.90
2022-08-19T03:21:47.348Z,0.80
2022-08-19T03:24:16.533Z,0.80
2022-08-19T03:26:49.929Z,1.00
2022-08-19T03:29:30.190Z,1.08
2022-08-19T03:34:34.433Z,1.20
2022-08-19T03:37:12.409Z,1.00
2022-08-19T03:39:41.522Z,0.90
2022-08-19T03:42:31.900Z,1.00
2022-08-19T03:44:57.598Z,0.90
2022-08-19T03:47:25.046Z,1.02
2022-08-19T03:49:52.564Z,1.00
2022-08-19T03:52:20.507Z,1.00
2022-08-19T03:54:47.974Z,0.80
2022-08-19T03:57:15.484Z,1.00
2022-08-19T03:59:43.102Z,0.90
2022-08-19T04:02:13.012Z,1.10
2022-08-19T04:04:44.362Z,1.17
2022-08-19T04:07:16.891Z,0.75
2022-08-19T04:09:44.903Z,0.80
2022-08-19T04:12:12.360Z,1.00
2022-08-19T04:14:40.726Z,0.90
2022-08-19T04:17:08.292Z,1.02
2022-08-19T04:19:37.208Z,0.82
2022-08-19T04:22:05.803Z,0.88
2022-08-19T04:24:35.199Z,0.70
2022-08-19T04:27:03.860Z,0.82
2022-08-19T04:29:31.554Z,1.05
2022-08-19T04:32:09.459Z,0.73
2022-08-19T04:35:01.384Z,0.90
2022-08-19T04:37:34.828Z,0.80
2022-08-19T04:40:23.529Z,0.80
2022-08-19T04:42:50.971Z,0.80
2022-08-19T04:45:18.532Z,0.75
2022-08-19T04:47:47.672Z,0.80
2022-08-19T04:50:27.551Z,0.73
2022-08-19T04:52:56.671Z,0.70
2022-08-19T04:55:26.741Z,0.88
2022-08-19T04:57:55.820Z,0.68
2022-08-19T05:00:23.739Z,0.70
2022-08-19T05:02:51.241Z,0.70
2022-08-19T05:05:18.960Z,0.80
2022-08-19T05:07:46.562Z,0.70
2022-08-19T05:10:14.196Z,0.73
2022-08-19T05:12:41.764Z,0.60
2022-08-19T05:15:09.746Z,0.55
2022-08-19T05:17:38.975Z,0.70
2022-08-19T05:20:27.652Z,0.60
2022-08-19T05:22:56.468Z,0.80
2022-08-19T05:25:25.759Z,0.60
2022-08-19T05:27:53.293Z,0.60
2022-08-19T05:30:33.420Z,0.63
2022-08-19T05:33:12.411Z,0.52
2022-08-19T05:35:41.418Z,0.60
2022-08-19T05:38:09.453Z,0.60
2022-08-19T05:40:38.731Z,0.50
2022-08-19T05:43:08.465Z,0.70
2022-08-19T05:45:41.144Z,0.70
2022-08-19T05:48:09.018Z,0.70
2022-08-19T05:50:37.284Z,0.60
2022-08-19T05:53:05.248Z,0.60
2022-08-19T05:55:33.268Z,0.70
2022-08-19T05:58:02.788Z,0.68
2022-08-19T06:00:32.317Z,0.82
2022-08-19T06:03:12.410Z,0.55
2022-08-19T06:08:19.638Z,0.65
2022-08-19T06:10:47.348Z,0.80
2022-08-19T06:13:15.015Z,0.80
2022-08-19T06:15:45.328Z,0.70
2022-08-19T06:18:12.847Z,0.73
2022-08-19T06:20:55.622Z,0.63
2022-08-19T06:23:24.249Z,0.90
2022-08-19T06:25:51.987Z,0.70
2022-08-19T06:28:19.530Z,0.77
2022-08-19T06:30:47.577Z,0.82
2022-08-19T06:33:15.022Z,0.77
2022-08-19T06:35:42.946Z,0.75
2022-08-19T06:38:10.701Z,0.90
2022-08-19T06:40:39.310Z,0.77
2022-08-19T06:43:08.615Z,0.70
2022-08-19T06:45:39.873Z,1.05
2022-08-19T06:48:08.122Z,0.90
2022-08-19T06:50:36.848Z,0.80
2022-08-19T06:53:07.292Z,0.90
2022-08-19T06:55:34.742Z,1.02
2022-08-19T06:58:05.417Z,1.00
2022-08-19T07:00:33.923Z,0.80
2022-08-19T07:03:06.089Z,0.98
2022-08-19T07:05:40.938Z,0.88
2022-08-19T07:08:13.663Z,0.98
2022-08-19T07:10:45.888Z,1.00
2022-08-19T07:13:13.593Z,0.98
2022-08-19T07:15:41.053Z,0.88
2022-08-19T07:18:11.841Z,0.82
2022-08-19T07:23:10.145Z,0.85
2022-08-19T07:25:43.730Z,0.95
2022-08-19T07:28:18.032Z,0.88
2022-08-19T07:30:52.756Z,1.00
2022-08-19T07:33:20.915Z,0.80
2022-08-19T07:35:48.398Z,1.05
2022-08-19T07:38:16.827Z,1.00
2022-08-19T07:40:47.350Z,0.90
2022-08-19T07:43:17.720Z,1.10
2022-08-19T07:48:13.681Z,1.00
2022-08-19T07:50:41.150Z,1.00
2022-08-19T07:53:08.660Z,1.00
2022-08-19T07:55:41.364Z,1.08
2022-08-19T07:58:15.866Z,1.15
2022-08-19T08:00:44.305Z,1.08
2022-08-19T08:03:12.612Z,1.17
2022-08-19T08:05:58.362Z,1.10
2022-08-19T08:08:48.259Z,1.30
2022-08-19T08:11:20.796Z,1.10
2022-08-19T08:14:01.432Z,1.23
2022-08-19T08:16:39.502Z,1.27
2022-08-19T08:19:14.830Z,1.00
2022-08-19T08:21:57.691Z,1.08
2022-08-19T08:24:28.302Z,1.30
2022-08-19T08:26:57.799Z,1.00
2022-08-19T08:29:34.433Z,1.15
2022-08-19T08:32:14.023Z,1.25
2022-08-19T08:34:41.971Z,1.40
2022-08-19T08:37:09.458Z,1.50
2022-08-19T08:39:37.011Z,1.50
2022-08-19T08:42:44.139Z,1.50
2022-08-19T08:45:17.957Z,1.40
2022-08-19T08:47:51.047Z,1.35
2022-08-19T08:50:30.526Z,1.40
2022-08-19T08:52:59.542Z,1.50
2022-08-19T08:55:36.948Z,1.30
2022-08-19T08:58:15.116Z,1.45
2022-08-19T09:00:47.831Z,1.45
2022-08-19T09:03:24.811Z,1.50
2022-08-19T09:05:58.811Z,1.60
2022-08-19T09:08:49.477Z,1.73
2022-08-19T09:11:59.294Z,1.60
2022-08-19T09:14:50.723Z,1.20
2022-08-19T09:17:24.511Z,1.45
2022-08-19T09:19:55.691Z,1.42
2022-08-19T09:22:26.114Z,1.40
2022-08-19T09:24:55.851Z,1.60
2022-08-19T09:27:41.860Z,1.42
2022-08-19T09:30:26.255Z,1.65
2022-08-19T09:32:54.835Z,1.80
2022-08-19T09:35:24.443Z,1.80
2022-08-19T09:37:57.600Z,1.70
2022-08-19T09:40:30.007Z,1.58
2022-08-19T09:45:26.252Z,1.70
2022-08-19T09:47:55.632Z,1.70
2022-08-19T09:50:24.881Z,1.80
2022-08-19T09:52:55.618Z,2.03
2022-08-19T09:55:32.053Z,1.80
2022-08-19T09:58:03.605Z,1.92
2022-08-19T10:00:32.514Z,1.90
2022-08-19T10:03:00.108Z,1.80
2022-08-19T10:05:48.689Z,1.95
2022-08-19T10:08:18.649Z,1.63
2022-08-19T10:10:49.260Z,1.88
2022-08-19T10:13:24.785Z,2.00
2022-08-19T10:15:54.222Z,1.98
2022-08-19T10:20:54.681Z,1.90
2022-08-19T10:23:22.700Z,2.03
2022-08-19T10:25:50.882Z,2.00
2022-08-19T10:28:19.393Z,2.10
2022-08-19T10:30:48.779Z,2.13
2022-08-19T10:33:38.293Z,2.20
2022-08-19T10:36:16.232Z,2.30
2022-08-19T10:38:53.451Z,2.20
2022-08-19T10:41:26.640Z,2.00
2022-08-19T10:43:56.246Z,2.10
2022-08-19T10:46:25.828Z,2.30
2022-08-19T10:48:54.427Z,2.40
2022-08-19T10:51:57.765Z,2.28
2022-08-19T10:54:49.908Z,2.10
2022-08-19T10:57:17.513Z,2.50
2022-08-19T10:59:45.496Z,2.40
2022-08-19T11:02:14.035Z,1.98
2022-08-19T11:04:41.905Z,2.55
2022-08-19T11:07:11.206Z,2.30
2022-08-19T11:09:42.581Z,2.08
2022-08-19T11:12:11.390Z,2.30
2022-08-19T11:14:39.134Z,2.53
2022-08-19T11:17:06.948Z,2.47
2022-08-19T11:19:35.234Z,2.88
2022-08-19T11:22:04.026Z,2.50
2022-08-19T11:24:32.759Z,2.60
2022-08-19T11:27:05.671Z,2.90
2022-08-19T11:29:35.523Z,2.50
2022-08-19T11:32:10.501Z,2.38
2022-08-19T11:34:38.623Z,2.47
2022-08-19T11:37:06.870Z,2.30
2022-08-19T11:39:35.326Z,2.78
2022-08-19T11:42:04.169Z,2.90
2022-08-19T11:44:31.689Z,2.70
2022-08-19T11:47:09.033Z,3.22
2022-08-19T11:49:37.115Z,2.90
2022-08-19T11:52:04.722Z,3.03
2022-08-19T11:54:32.231Z,2.83
2022-08-19T11:56:59.669Z,2.70
2022-08-19T11:59:27.974Z,2.83
2022-08-19T12:01:58.241Z,2.77
2022-08-19T12:04:25.763Z,3.20
2022-08-19T12:06:54.154Z,2.95
2022-08-19T12:09:23.254Z,2.90
2022-08-19T12:11:51.962Z,3.00
2022-08-19T12:14:19.759Z,3.10
2022-08-19T12:16:51.433Z,2.80
2022-08-19T12:19:21.671Z,2.90
2022-08-19T12:21:51.038Z,3.10
2022-08-19T12:24:24.459Z,3.03
2022-08-19T12:26:53.237Z,3.03
2022-08-19T12:29:23.892Z,3.20
2022-08-19T12:31:52.334Z,3.05
2022-08-19T12:34:21.268Z,3.22
2022-08-19T12:36:50.550Z,3.00
2022-08-19T12:39:18.415Z,2.95
2022-08-19T12:41:54.829Z,2.90
2022-08-19T12:44:31.891Z,2.97
2022-08-19T12:47:00.798Z,3.13
2022-08-19T12:49:53.481Z,3.50
2022-08-19T12:52:23.110Z,3.50
2022-08-19T12:54:54.110Z,3.03
2022-08-19T12:57:31.572Z,3.40
2022-08-19T13:00:22.285Z,3.45
2022-08-19T13:02:52.126Z,3.20
2022-08-19T13:05:28.294Z,3.78
2022-08-19T13:07:57.791Z,3.45
2022-08-19T13:10:29.045Z,4.18
2022-08-19T13:12:58.248Z,3.83
2022-08-19T13:15:25.675Z,3.70
2022-08-19T13:17:54.951Z,3.50
2022-08-19T13:20:23.570Z,3.65
2022-08-19T13:22:51.268Z,4.28
2022-08-19T13:25:20.930Z,3.65
2022-08-19T13:27:50.484Z,3.85
2022-08-19T13:30:38.788Z,4.05
2022-08-19T13:33:12.424Z,3.40
2022-08-19T13:35:44.639Z,4.00
2022-08-19T13:38:12.930Z,3.38
2022-08-19T13:40:41.658Z,3.30
2022-08-19T13:43:13.671Z,3.55
2022-08-19T13:45:57.428Z,4.00
2022-08-19T13:48:27.918Z,3.60
2022-08-19T13:50:56.296Z,3.60
2022-08-19T13:53:24.672Z,3.53
2022-08-19T13:55:52.297Z,3.50
2022-08-19T13:58:19.773Z,3.47
2022-08-19T14:00:47.849Z,3.53
2022-08-19T14:03:15.546Z,3.60
2022-08-19T14:05:43.026Z,3.63
2022-08-19T14:08:10.464Z,3.70
2022-08-19T14:10:38.079Z,3.60
2022-08-19T14:13:05.574Z,3.70
2022-08-19T14:15:33.109Z,3.30
2022-08-19T14:18:00.867Z,3.60
2022-08-19T14:20:29.161Z,3.70
2022-08-19T14:22:56.851Z,3.70
2022-08-19T14:25:27.618Z,3.20
2022-08-19T14:27:56.093Z,3.50
2022-08-19T14:30:30.819Z,3.28
2022-08-19T14:32:59.742Z,3.47
2022-08-19T14:35:29.163Z,3.50
2022-08-19T14:37:58.624Z,3.90
2022-08-19T14:40:30.615Z,3.30
2022-08-19T14:43:02.284Z,3.10
2022-08-19T14:45:30.479Z,3.10
2022-08-19T14:47:58.019Z,3.28
2022-08-19T14:50:25.466Z,3.20
2022-08-19T14:53:09.070Z,3.33
2022-08-19T14:55:45.408Z,3.30
2022-08-19T14:58:29.870Z,3.10
2022-08-19T15:01:02.703Z,3.33
2022-08-19T15:03:30.858Z,3.28
2022-08-19T15:05:58.820Z,3.17
2022-08-19T15:08:27.166Z,3.50
2022-08-19T15:10:55.157Z,3.38
2022-08-19T15:13:22.653Z,3.38
2022-08-19T15:15:50.205Z,3.05
2022-08-19T15:18:17.637Z,3.17
2022-08-19T15:20:47.959Z,3.20
2022-08-19T15:23:18.492Z,3.10
2022-08-19T15:25:46.179Z,3.25
2022-08-19T15:28:13.680Z,3.40
2022-08-19T15:30:42.477Z,3.25
2022-08-19T15:33:15.297Z,3.03
2022-08-19T15:35:43.623Z,3.20
2022-08-19T15:38:14.048Z,3.13
2022-08-19T15:40:42.752Z,3.40
2022-08-19T15:43:10.232Z,3.00
2022-08-19T15:45:37.700Z,3.28
2022-08-19T15:48:05.828Z,2.85
2022-08-19T15:50:33.401Z,3.40
2022-08-19T15:53:05.064Z,3.33
2022-08-19T15:55:35.049Z,2.70
2022-08-19T15:58:32.752Z,3.30
2022-08-19T16:01:23.487Z,2.83
2022-08-19T16:09:24.906Z,3.17
2022-08-19T16:12:01.725Z,3.25
2022-08-19T16:14:31.668Z,3.15
2022-08-19T16:16:59.943Z,3.20
2022-08-19T16:19:27.599Z,3.03
2022-08-19T16:21:56.958Z,2.92
2022-08-19T16:24:26.980Z,3.25
2022-08-19T16:26:55.001Z,3.17
2022-08-19T16:29:34.762Z,3.03
2022-08-19T16:32:10.516Z,3.35
2022-08-19T16:34:40.619Z,2.78
2022-08-19T16:37:10.155Z,2.90
2022-08-19T16:39:37.827Z,3.13
2022-08-19T16:42:08.188Z,3.15
2022-08-19T16:44:37.210Z,3.00
2022-08-19T16:47:04.704Z,2.80
2022-08-19T16:49:54.129Z,2.70
2022-08-19T16:52:21.366Z,3.03
2022-08-19T16:54:49.495Z,2.95
2022-08-19T16:57:17.097Z,2.83
2022-08-19T16:59:49.178Z,3.10
2022-08-19T17:02:19.562Z,3.05
2022-08-19T17:04:57.623Z,3.00
2022-08-19T17:07:29.033Z,3.20
2022-08-19T17:09:58.949Z,2.65
2022-08-19T17:12:29.029Z,3.17
2022-08-19T17:15:01.078Z,2.67
2022-08-19T17:17:30.215Z,2.80
2022-08-19T17:20:02.288Z,2.90
2022-08-19T17:22:30.337Z,3.10
2022-08-19T17:24:58.992Z,2.90
2022-08-19T17:27:32.277Z,2.90
2022-08-19T17:30:04.236Z,2.70
2022-08-19T17:32:35.778Z,2.90
2022-08-19T17:35:04.956Z,2.97
2022-08-19T17:37:33.132Z,2.50
2022-08-19T17:40:03.149Z,2.53
2022-08-19T17:42:31.781Z,2.80
2022-08-19T17:44:59.683Z,3.00
2022-08-19T17:47:28.568Z,2.70
2022-08-19T17:49:56.886Z,2.67
2022-08-19T17:52:24.414Z,2.70
2022-08-19T17:54:51.914Z,2.70
2022-08-19T17:57:19.336Z,2.42
2022-08-19T17:59:46.886Z,2.72
2022-08-19T18:02:16.381Z,2.50
2022-08-19T18:04:48.880Z,2.65
2022-08-19T18:07:21.708Z,2.38
2022-08-19T18:09:52.962Z,2.65
2022-08-19T18:12:26.969Z,2.60
2022-08-19T18:14:54.756Z,2.78
2022-08-19T18:17:23.449Z,2.45
2022-08-19T18:19:51.217Z,2.40
2022-08-19T18:22:37.032Z,2.45
2022-08-19T18:25:14.044Z,2.30
2022-08-19T18:27:43.532Z,2.10
2022-08-19T18:30:11.719Z,2.35
2022-08-19T18:32:42.371Z,2.47
2022-08-19T18:35:14.111Z,2.40
2022-08-19T18:37:43.550Z,2.50
2022-08-19T18:40:34.304Z,2.35
2022-08-19T18:43:20.014Z,2.40
2022-08-19T18:46:07.243Z,2.22
2022-08-19T18:48:53.928Z,2.50
2022-08-19T18:51:27.761Z,2.30
2022-08-19T18:53:58.981Z,2.50
2022-08-19T18:59:04.218Z,2.13
2022-08-19T19:01:39.670Z,2.33
2022-08-19T19:04:13.656Z,2.33
2022-08-19T19:06:44.366Z,2.00
2022-08-19T19:09:17.640Z,2.50
2022-08-19T19:11:49.035Z,2.40
2022-08-19T19:14:49.234Z,2.25
2022-08-19T19:17:17.635Z,1.98
2022-08-19T19:19:45.308Z,2.30
2022-08-19T19:22:19.081Z,2.10
2022-08-19T19:24:49.347Z,2.10
2022-08-19T19:27:20.559Z,2.13
2022-08-19T19:29:52.176Z,2.13
2022-08-19T19:32:39.023Z,2.30
2022-08-19T19:35:10.721Z,2.10
2022-08-19T19:37:38.215Z,2.10
2022-08-19T19:40:06.123Z,2.00
2022-08-19T19:42:33.782Z,1.80
2022-08-19T19:45:02.808Z,1.98
2022-08-19T19:47:30.506Z,1.90
2022-08-19T19:50:15.157Z,2.03
2022-08-19T19:52:45.887Z,1.80
2022-08-19T19:55:20.809Z,1.80
2022-08-19T19:57:49.301Z,2.38
2022-08-19T20:00:19.031Z,2.03
2022-08-19T20:02:50.114Z,1.90
2022-08-19T20:05:22.845Z,1.90
2022-08-19T20:08:10.880Z,1.75
2022-08-19T20:10:39.469Z,1.70
2022-08-19T20:13:08.030Z,1.92
2022-08-19T20:15:40.372Z,1.70
2022-08-19T20:18:10.971Z,1.70
2022-08-19T20:20:38.632Z,1.85
2022-08-19T20:23:06.837Z,1.73
2022-08-19T20:25:34.434Z,2.08
2022-08-19T20:28:01.893Z,1.70
2022-08-19T20:30:29.759Z,1.63
2022-08-19T20:33:00.914Z,1.80
2022-08-19T20:35:28.444Z,1.80
2022-08-19T20:37:58.432Z,1.88
2022-08-19T20:40:27.302Z,1.50
2022-08-19T20:42:55.430Z,1.88
2022-08-19T20:45:33.661Z,1.60
2022-08-19T20:48:03.207Z,1.80
2022-08-19T20:50:35.931Z,1.80
2022-08-19T20:53:14.834Z,1.90
2022-08-19T20:55:49.308Z,1.60
2022-08-19T20:58:19.244Z,2.90
2022-08-19T21:00:48.373Z,1.65
2022-08-19T21:03:21.721Z,1.70
2022-08-19T21:05:49.899Z,1.60
2022-08-19T21:08:21.014Z,1.60
2022-08-19T21:10:50.960Z,1.45
2022-08-19T21:13:20.154Z,1.63
2022-08-19T21:15:48.158Z,1.77
2022-08-19T21:18:17.956Z,1.77
2022-08-19T21:20:46.379Z,1.50
2022-08-19T21:23:23.017Z,1.80
2022-08-19T21:25:54.765Z,1.52
2022-08-19T21:28:34.622Z,1.83
2022-08-19T21:31:06.476Z,1.70
2022-08-19T21:33:34.010Z,1.50
2022-08-19T21:36:02.746Z,1.60
2022-08-19T21:38:30.325Z,1.60
2022-08-19T21:40:58.867Z,1.73
2022-08-19T21:43:26.398Z,1.50
2022-08-19T21:45:53.854Z,1.63
2022-08-19T21:48:21.292Z,1.50
2022-08-19T21:50:49.561Z,1.52
2022-08-19T21:53:17.878Z,1.70
2022-08-19T21:55:52.748Z,1.50
2022-08-19T21:58:28.221Z,1.50
2022-08-19T22:01:02.189Z,1.60
2022-08-19T22:03:29.883Z,1.60
2022-08-19T22:05:58.733Z,1.50
2022-08-19T22:08:27.422Z,1.50
2022-08-19T22:10:55.266Z,1.48
2022-08-19T22:13:22.734Z,1.50
2022-08-19T22:15:52.042Z,1.27
2022-08-19T22:18:19.562Z,1.30
2022-08-19T22:20:48.084Z,1.42
2022-08-19T22:23:15.651Z,1.40
2022-08-19T22:25:47.444Z,1.40
2022-08-19T22:28:18.760Z,1.30
2022-08-19T22:30:51.251Z,1.58
2022-08-19T22:33:20.896Z,1.42
2022-08-19T22:35:48.507Z,1.50
2022-08-19T22:38:16.605Z,1.35
2022-08-19T22:40:47.604Z,1.33
2022-08-19T22:43:19.017Z,1.30
2022-08-19T22:45:48.270Z,1.55
2022-08-19T22:48:18.681Z,1.40
2022-08-19T22:51:08.268Z,1.52
2022-08-19T22:53:39.010Z,1.40
2022-08-19T22:56:13.059Z,1.30
2022-08-19T22:58:43.423Z,1.30
2022-08-19T23:01:27.446Z,1.30
2022-08-19T23:03:59.578Z,1.30
2022-08-19T23:06:30.478Z,1.50
2022-08-19T23:09:04.592Z,1.40
2022-08-19T23:14:10.574Z,1.17
2022-08-19T23:16:38.124Z,1.40
2022-08-19T23:19:07.492Z,1.15
2022-08-19T23:21:36.366Z,1.20
2022-08-19T23:24:04.354Z,1.33
2022-08-19T23:26:35.706Z,1.10
2022-08-19T23:29:23.422Z,1.10
2022-08-19T23:31:51.084Z,1.20
2022-08-19T23:34:18.551Z,1.40
2022-08-19T23:36:46.489Z,1.38
2022-08-19T23:39:14.049Z,1.30
2022-08-19T23:41:41.496Z,1.67
2022-08-19T23:44:10.049Z,1.38
2022-08-19T23:46:51.906Z,1.40
2022-08-19T23:49:22.760Z,1.43
2022-08-19T23:51:50.241Z,1.33
2022-08-19T23:54:17.737Z,1.30
2022-08-19T23:56:45.266Z,1.40
2022-08-19T23:59:12.740Z,1.25
